sensor_id;sensor_type;location;lat;lon;timestamp;temperature;humidity
25046;DHT22;13044;49.304;12.840;2023-05-10T00:01:21;11.70;99.90
25046;DHT22;13044;49.304;12.840;2023-05-10T00:03:47;11.70;99.90
25046;DHT22;13044;49.304;12.840;2023-05-10T00:06:15;11.70;99.90
25046;DHT22;13044;49.304;12.840;2023-05-10T00:08:41;11.60;99.90
25046;DHT22;13044;49.304;12.840;2023-05-10T00:11:08;11.50;99.90
25046;DHT22;13044;49.304;12.840;2023-05-10T00:13:35;11.50;99.90
25046;DHT22;13044;49.304;12.840;2023-05-10T00:16:02;11.50;99.90
25046;DHT22;13044;49.304;12.840;2023-05-10T00:18:29;11.50;99.90
25046;DHT22;13044;49.304;12.840;2023-05-10T00:20:56;11.50;99.90
25046;DHT22;13044;49.304;12.840;2023-05-10T00:23:22;11.50;99.90
25046;DHT22;13044;49.304;12.840;2023-05-10T00:25:49;11.60;99.90
25046;DHT22;13044;49.304;12.840;2023-05-10T00:28:16;11.60;99.90
25046;DHT22;13044;49.304;12.840;2023-05-10T00:30:43;11.60;99.90
25046;DHT22;13044;49.304;12.840;2023-05-10T00:33:10;11.60;99.90
25046;DHT22;13044;49.304;12.840;2023-05-10T00:35:38;11.60;99.90
25046;DHT22;13044;49.304;12.840;2023-05-10T00:38:04;11.50;99.90
25046;DHT22;13044;49.304;12.840;2023-05-10T00:40:31;11.50;99.90
25046;DHT22;13044;49.304;12.840;2023-05-10T00:42:58;11.50;99.90
25046;DHT22;13044;49.304;12.840;2023-05-10T00:45:26;11.50;99.90
25046;DHT22;13044;49.304;12.840;2023-05-10T00:47:53;11.30;99.90
25046;DHT22;13044;49.304;12.840;2023-05-10T00:50:23;11.30;99.90
25046;DHT22;13044;49.304;12.840;2023-05-10T00:52:50;11.30;99.90
25046;DHT22;13044;49.304;12.840;2023-05-10T00:55:17;11.30;99.90
25046;DHT22;13044;49.304;12.840;2023-05-10T00:57:45;11.30;99.90
25046;DHT22;13044;49.304;12.840;2023-05-10T01:00:13;11.30;99.90
25046;DHT22;13044;49.304;12.840;2023-05-10T01:02:45;11.30;99.90
25046;DHT22;13044;49.304;12.840;2023-05-10T01:05:13;11.40;99.90
25046;DHT22;13044;49.304;12.840;2023-05-10T01:07:40;11.40;99.90
25046;DHT22;13044;49.304;12.840;2023-05-10T01:10:08;11.30;99.90
25046;DHT22;13044;49.304;12.840;2023-05-10T01:12:37;11.30;99.90
25046;DHT22;13044;49.304;12.840;2023-05-10T01:15:07;11.30;99.90
25046;DHT22;13044;49.304;12.840;2023-05-10T01:17:36;11.20;99.90
25046;DHT22;13044;49.304;12.840;2023-05-10T01:20:05;11.10;99.90
25046;DHT22;13044;49.304;12.840;2023-05-10T01:25:56;10.90;99.90
25046;DHT22;13044;49.304;12.840;2023-05-10T01:34:36;11.00;99.90
25046;DHT22;13044;49.304;12.840;2023-05-10T01:37:17;11.10;99.90
25046;DHT22;13044;49.304;12.840;2023-05-10T01:40:00;11.00;99.90
25046;DHT22;13044;49.304;12.840;2023-05-10T01:42:42;11.10;99.90
25046;DHT22;13044;49.304;12.840;2023-05-10T01:45:27;11.10;99.90
25046;DHT22;13044;49.304;12.840;2023-05-10T01:48:11;11.20;99.90
25046;DHT22;13044;49.304;12.840;2023-05-10T01:50:41;11.30;99.90
25046;DHT22;13044;49.304;12.840;2023-05-10T01:53:11;11.30;99.90
25046;DHT22;13044;49.304;12.840;2023-05-10T01:55:50;11.30;99.90
25046;DHT22;13044;49.304;12.840;2023-05-10T01:58:28;11.30;99.90
25046;DHT22;13044;49.304;12.840;2023-05-10T02:00:59;11.40;99.90
25046;DHT22;13044;49.304;12.840;2023-05-10T02:03:28;11.30;99.90
25046;DHT22;13044;49.304;12.840;2023-05-10T02:05:56;11.30;99.90
25046;DHT22;13044;49.304;12.840;2023-05-10T02:08:24;11.30;99.90
25046;DHT22;13044;49.304;12.840;2023-05-10T02:10:55;11.30;99.90
25046;DHT22;13044;49.304;12.840;2023-05-10T02:13:24;11.30;99.90
25046;DHT22;13044;49.304;12.840;2023-05-10T02:15:53;11.40;99.90
25046;DHT22;13044;49.304;12.840;2023-05-10T02:18:22;11.30;99.90
25046;DHT22;13044;49.304;12.840;2023-05-10T02:20:51;11.30;99.90
25046;DHT22;13044;49.304;12.840;2023-05-10T02:23:19;11.30;99.90
25046;DHT22;13044;49.304;12.840;2023-05-10T02:25:48;11.30;99.90
25046;DHT22;13044;49.304;12.840;2023-05-10T02:28:17;11.30;99.90
25046;DHT22;13044;49.304;12.840;2023-05-10T02:30:44;11.30;99.90
25046;DHT22;13044;49.304;12.840;2023-05-10T02:33:14;11.30;99.90
25046;DHT22;13044;49.304;12.840;2023-05-10T02:35:41;11.20;99.90
25046;DHT22;13044;49.304;12.840;2023-05-10T02:38:09;11.20;99.90
25046;DHT22;13044;49.304;12.840;2023-05-10T02:40:36;11.20;99.90
25046;DHT22;13044;49.304;12.840;2023-05-10T02:43:06;11.20;99.90
25046;DHT22;13044;49.304;12.840;2023-05-10T02:45:36;11.30;99.90
25046;DHT22;13044;49.304;12.840;2023-05-10T02:48:05;11.30;99.90
25046;DHT22;13044;49.304;12.840;2023-05-10T02:50:33;11.30;99.90
25046;DHT22;13044;49.304;12.840;2023-05-10T02:53:01;11.30;99.90
25046;DHT22;13044;49.304;12.840;2023-05-10T02:55:38;11.30;99.90
25046;DHT22;13044;49.304;12.840;2023-05-10T02:58:07;11.40;99.90
25046;DHT22;13044;49.304;12.840;2023-05-10T03:00:34;11.30;99.90
25046;DHT22;13044;49.304;12.840;2023-05-10T03:03:02;11.30;99.90
25046;DHT22;13044;49.304;12.840;2023-05-10T03:05:29;11.30;99.90
25046;DHT22;13044;49.304;12.840;2023-05-10T03:07:56;11.40;99.90
25046;DHT22;13044;49.304;12.840;2023-05-10T03:10:27;11.40;99.90
25046;DHT22;13044;49.304;12.840;2023-05-10T03:13:25;11.40;99.90
25046;DHT22;13044;49.304;12.840;2023-05-10T03:16:01;11.40;99.90
25046;DHT22;13044;49.304;12.840;2023-05-10T03:18:53;11.40;99.90
25046;DHT22;13044;49.304;12.840;2023-05-10T03:21:22;11.40;99.90
25046;DHT22;13044;49.304;12.840;2023-05-10T03:23:59;11.40;99.90
25046;DHT22;13044;49.304;12.840;2023-05-10T03:26:32;11.40;99.90
25046;DHT22;13044;49.304;12.840;2023-05-10T03:28:59;11.40;99.90
25046;DHT22;13044;49.304;12.840;2023-05-10T03:31:27;11.40;99.90
25046;DHT22;13044;49.304;12.840;2023-05-10T03:33:54;11.50;99.90
25046;DHT22;13044;49.304;12.840;2023-05-10T03:36:21;11.40;99.90
25046;DHT22;13044;49.304;12.840;2023-05-10T03:38:47;11.40;99.90
25046;DHT22;13044;49.304;12.840;2023-05-10T03:41:14;11.50;99.90
25046;DHT22;13044;49.304;12.840;2023-05-10T03:43:41;11.50;99.90
25046;DHT22;13044;49.304;12.840;2023-05-10T03:46:08;11.40;99.90
25046;DHT22;13044;49.304;12.840;2023-05-10T03:48:35;11.40;99.90
25046;DHT22;13044;49.304;12.840;2023-05-10T03:51:02;11.40;99.90
25046;DHT22;13044;49.304;12.840;2023-05-10T03:53:29;11.30;99.90
25046;DHT22;13044;49.304;12.840;2023-05-10T03:55:55;11.30;99.90
25046;DHT22;13044;49.304;12.840;2023-05-10T03:58:22;11.30;99.90
25046;DHT22;13044;49.304;12.840;2023-05-10T04:00:50;11.30;99.90
25046;DHT22;13044;49.304;12.840;2023-05-10T04:03:17;11.20;99.90
25046;DHT22;13044;49.304;12.840;2023-05-10T04:05:44;11.20;99.90
25046;DHT22;13044;49.304;12.840;2023-05-10T04:08:11;11.20;99.90
25046;DHT22;13044;49.304;12.840;2023-05-10T04:10:38;11.20;99.90
25046;DHT22;13044;49.304;12.840;2023-05-10T04:13:06;11.20;99.90
25046;DHT22;13044;49.304;12.840;2023-05-10T04:15:33;11.20;99.90
25046;DHT22;13044;49.304;12.840;2023-05-10T04:18:00;11.20;99.90
25046;DHT22;13044;49.304;12.840;2023-05-10T04:20:27;11.10;99.90
25046;DHT22;13044;49.304;12.840;2023-05-10T04:22:54;11.20;99.90
25046;DHT22;13044;49.304;12.840;2023-05-10T04:25:21;11.10;99.90
25046;DHT22;13044;49.304;12.840;2023-05-10T04:27:48;11.10;99.90
25046;DHT22;13044;49.304;12.840;2023-05-10T04:30:15;11.20;99.90
25046;DHT22;13044;49.304;12.840;2023-05-10T04:32:42;11.10;99.90
25046;DHT22;13044;49.304;12.840;2023-05-10T04:35:09;11.20;99.90
25046;DHT22;13044;49.304;12.840;2023-05-10T04:37:37;11.20;99.90
25046;DHT22;13044;49.304;12.840;2023-05-10T04:40:04;11.20;99.90
25046;DHT22;13044;49.304;12.840;2023-05-10T04:42:32;11.20;99.90
25046;DHT22;13044;49.304;12.840;2023-05-10T04:44:59;11.20;99.90
25046;DHT22;13044;49.304;12.840;2023-05-10T04:47:26;11.30;99.90
25046;DHT22;13044;49.304;12.840;2023-05-10T04:49:53;11.30;99.90
25046;DHT22;13044;49.304;12.840;2023-05-10T04:52:19;11.30;99.90
25046;DHT22;13044;49.304;12.840;2023-05-10T04:54:46;11.40;99.90
25046;DHT22;13044;49.304;12.840;2023-05-10T04:57:13;11.50;99.90
25046;DHT22;13044;49.304;12.840;2023-05-10T04:59:40;11.60;99.90
25046;DHT22;13044;49.304;12.840;2023-05-10T05:02:07;11.60;99.90
25046;DHT22;13044;49.304;12.840;2023-05-10T05:04:34;11.60;99.90
25046;DHT22;13044;49.304;12.840;2023-05-10T05:07:01;11.60;99.90
25046;DHT22;13044;49.304;12.840;2023-05-10T05:09:28;11.60;99.90
25046;DHT22;13044;49.304;12.840;2023-05-10T05:11:55;11.60;99.90
25046;DHT22;13044;49.304;12.840;2023-05-10T05:14:22;11.60;99.90
25046;DHT22;13044;49.304;12.840;2023-05-10T05:16:48;11.70;99.90
25046;DHT22;13044;49.304;12.840;2023-05-10T05:19:15;11.60;99.90
25046;DHT22;13044;49.304;12.840;2023-05-10T05:21:42;11.60;99.90
25046;DHT22;13044;49.304;12.840;2023-05-10T05:24:10;11.70;99.90
25046;DHT22;13044;49.304;12.840;2023-05-10T05:26:38;11.80;99.90
25046;DHT22;13044;49.304;12.840;2023-05-10T05:29:06;11.70;99.90
25046;DHT22;13044;49.304;12.840;2023-05-10T05:31:33;11.80;99.90
25046;DHT22;13044;49.304;12.840;2023-05-10T05:34:00;11.80;99.90
25046;DHT22;13044;49.304;12.840;2023-05-10T05:36:27;11.80;99.90
25046;DHT22;13044;49.304;12.840;2023-05-10T05:38:54;11.70;99.90
25046;DHT22;13044;49.304;12.840;2023-05-10T05:41:21;11.70;99.90
25046;DHT22;13044;49.304;12.840;2023-05-10T05:43:48;11.80;99.90
25046;DHT22;13044;49.304;12.840;2023-05-10T05:46:15;11.80;99.90
25046;DHT22;13044;49.304;12.840;2023-05-10T05:48:41;11.80;99.90
25046;DHT22;13044;49.304;12.840;2023-05-10T05:51:08;11.60;99.90
25046;DHT22;13044;49.304;12.840;2023-05-10T05:53:35;11.60;99.90
25046;DHT22;13044;49.304;12.840;2023-05-10T05:56:02;11.60;99.90
25046;DHT22;13044;49.304;12.840;2023-05-10T05:58:30;11.70;99.90
25046;DHT22;13044;49.304;12.840;2023-05-10T06:00:56;11.70;99.90
25046;DHT22;13044;49.304;12.840;2023-05-10T06:03:23;11.80;99.90
25046;DHT22;13044;49.304;12.840;2023-05-10T06:05:50;11.70;99.90
25046;DHT22;13044;49.304;12.840;2023-05-10T06:08:17;11.70;99.90
25046;DHT22;13044;49.304;12.840;2023-05-10T06:10:44;11.70;99.90
25046;DHT22;13044;49.304;12.840;2023-05-10T06:13:11;11.80;99.90
25046;DHT22;13044;49.304;12.840;2023-05-10T06:15:38;11.80;99.90
25046;DHT22;13044;49.304;12.840;2023-05-10T06:18:05;11.80;99.90
25046;DHT22;13044;49.304;12.840;2023-05-10T06:20:32;11.80;99.90
25046;DHT22;13044;49.304;12.840;2023-05-10T06:22:59;11.70;99.90
25046;DHT22;13044;49.304;12.840;2023-05-10T06:25:26;11.80;99.90
25046;DHT22;13044;49.304;12.840;2023-05-10T06:27:53;11.80;99.90
25046;DHT22;13044;49.304;12.840;2023-05-10T06:30:24;11.80;99.90
25046;DHT22;13044;49.304;12.840;2023-05-10T06:32:55;11.80;99.90
25046;DHT22;13044;49.304;12.840;2023-05-10T06:35:22;11.90;99.90
25046;DHT22;13044;49.304;12.840;2023-05-10T06:37:49;11.90;99.90
25046;DHT22;13044;49.304;12.840;2023-05-10T06:40:16;12.00;99.90
25046;DHT22;13044;49.304;12.840;2023-05-10T06:42:44;12.10;99.90
25046;DHT22;13044;49.304;12.840;2023-05-10T06:45:11;12.10;99.90
25046;DHT22;13044;49.304;12.840;2023-05-10T06:47:39;12.10;99.90
25046;DHT22;13044;49.304;12.840;2023-05-10T06:50:07;12.10;99.90
25046;DHT22;13044;49.304;12.840;2023-05-10T06:52:35;12.10;99.90
25046;DHT22;13044;49.304;12.840;2023-05-10T06:55:04;12.10;99.90
25046;DHT22;13044;49.304;12.840;2023-05-10T06:57:31;12.20;99.90
25046;DHT22;13044;49.304;12.840;2023-05-10T06:59:58;12.20;99.90
25046;DHT22;13044;49.304;12.840;2023-05-10T07:02:26;12.20;99.90
25046;DHT22;13044;49.304;12.840;2023-05-10T07:04:53;12.20;99.90
25046;DHT22;13044;49.304;12.840;2023-05-10T07:07:21;12.20;99.90
25046;DHT22;13044;49.304;12.840;2023-05-10T07:09:47;12.30;99.90
25046;DHT22;13044;49.304;12.840;2023-05-10T07:12:16;12.30;99.90
25046;DHT22;13044;49.304;12.840;2023-05-10T07:14:43;12.30;99.90
25046;DHT22;13044;49.304;12.840;2023-05-10T07:17:10;12.30;99.90
25046;DHT22;13044;49.304;12.840;2023-05-10T07:19:37;12.30;99.90
25046;DHT22;13044;49.304;12.840;2023-05-10T07:22:03;12.30;99.90
25046;DHT22;13044;49.304;12.840;2023-05-10T07:24:31;12.30;99.90
25046;DHT22;13044;49.304;12.840;2023-05-10T07:26:59;12.40;99.90
25046;DHT22;13044;49.304;12.840;2023-05-10T07:29:26;12.30;99.90
25046;DHT22;13044;49.304;12.840;2023-05-10T07:31:53;12.40;99.90
25046;DHT22;13044;49.304;12.840;2023-05-10T07:34:24;12.40;99.90
25046;DHT22;13044;49.304;12.840;2023-05-10T07:36:51;12.40;99.90
25046;DHT22;13044;49.304;12.840;2023-05-10T07:39:19;12.40;99.90
25046;DHT22;13044;49.304;12.840;2023-05-10T07:41:54;12.50;99.90
25046;DHT22;13044;49.304;12.840;2023-05-10T07:44:21;12.50;99.90
25046;DHT22;13044;49.304;12.840;2023-05-10T07:46:49;12.60;99.90
25046;DHT22;13044;49.304;12.840;2023-05-10T07:49:16;12.70;99.90
25046;DHT22;13044;49.304;12.840;2023-05-10T07:51:43;12.70;99.90
25046;DHT22;13044;49.304;12.840;2023-05-10T07:54:10;12.80;99.90
25046;DHT22;13044;49.304;12.840;2023-05-10T07:56:37;12.90;99.90
25046;DHT22;13044;49.304;12.840;2023-05-10T07:59:04;12.90;99.90
25046;DHT22;13044;49.304;12.840;2023-05-10T08:01:34;12.80;99.90
25046;DHT22;13044;49.304;12.840;2023-05-10T08:04:01;12.80;99.90
25046;DHT22;13044;49.304;12.840;2023-05-10T08:06:28;12.80;99.90
25046;DHT22;13044;49.304;12.840;2023-05-10T08:08:56;12.80;99.90
25046;DHT22;13044;49.304;12.840;2023-05-10T08:11:24;12.90;99.90
25046;DHT22;13044;49.304;12.840;2023-05-10T08:13:51;12.90;99.90
25046;DHT22;13044;49.304;12.840;2023-05-10T08:16:19;13.00;99.90
25046;DHT22;13044;49.304;12.840;2023-05-10T08:18:46;13.00;99.90
25046;DHT22;13044;49.304;12.840;2023-05-10T08:21:14;13.00;99.90
25046;DHT22;13044;49.304;12.840;2023-05-10T08:23:42;12.90;99.90
25046;DHT22;13044;49.304;12.840;2023-05-10T08:26:10;13.00;99.90
25046;DHT22;13044;49.304;12.840;2023-05-10T08:28:38;13.00;99.90
25046;DHT22;13044;49.304;12.840;2023-05-10T08:31:05;12.90;99.90
25046;DHT22;13044;49.304;12.840;2023-05-10T08:33:32;12.90;99.90
25046;DHT22;13044;49.304;12.840;2023-05-10T08:35:59;12.90;99.90
25046;DHT22;13044;49.304;12.840;2023-05-10T08:38:26;12.70;99.90
25046;DHT22;13044;49.304;12.840;2023-05-10T08:40:54;12.70;99.90
25046;DHT22;13044;49.304;12.840;2023-05-10T08:43:29;12.70;99.90
25046;DHT22;13044;49.304;12.840;2023-05-10T08:45:56;12.60;99.90
25046;DHT22;13044;49.304;12.840;2023-05-10T08:48:29;12.70;99.90
25046;DHT22;13044;49.304;12.840;2023-05-10T08:50:58;12.80;99.90
25046;DHT22;13044;49.304;12.840;2023-05-10T08:53:27;12.60;99.90
25046;DHT22;13044;49.304;12.840;2023-05-10T08:55:55;12.60;99.90
25046;DHT22;13044;49.304;12.840;2023-05-10T08:58:24;12.50;99.90
25046;DHT22;13044;49.304;12.840;2023-05-10T09:00:51;12.50;99.90
25046;DHT22;13044;49.304;12.840;2023-05-10T09:03:19;12.50;99.90
25046;DHT22;13044;49.304;12.840;2023-05-10T09:05:47;12.50;99.90
25046;DHT22;13044;49.304;12.840;2023-05-10T09:08:15;12.60;99.90
25046;DHT22;13044;49.304;12.840;2023-05-10T09:10:45;12.60;99.90
25046;DHT22;13044;49.304;12.840;2023-05-10T09:13:17;12.70;99.90
25046;DHT22;13044;49.304;12.840;2023-05-10T09:15:45;12.70;99.90
25046;DHT22;13044;49.304;12.840;2023-05-10T09:18:12;12.70;99.90
25046;DHT22;13044;49.304;12.840;2023-05-10T09:20:39;12.60;99.90
25046;DHT22;13044;49.304;12.840;2023-05-10T09:23:07;12.70;99.90
25046;DHT22;13044;49.304;12.840;2023-05-10T09:25:34;12.80;99.90
25046;DHT22;13044;49.304;12.840;2023-05-10T09:28:01;12.80;99.90
25046;DHT22;13044;49.304;12.840;2023-05-10T09:30:30;12.80;99.90
25046;DHT22;13044;49.304;12.840;2023-05-10T09:32:58;12.90;99.90
25046;DHT22;13044;49.304;12.840;2023-05-10T09:35:28;13.00;99.90
25046;DHT22;13044;49.304;12.840;2023-05-10T09:37:59;13.10;99.90
25046;DHT22;13044;49.304;12.840;2023-05-10T09:40:29;13.20;99.90
25046;DHT22;13044;49.304;12.840;2023-05-10T09:42:57;13.40;99.90
25046;DHT22;13044;49.304;12.840;2023-05-10T09:45:30;13.50;99.90
25046;DHT22;13044;49.304;12.840;2023-05-10T09:47:59;13.50;99.90
25046;DHT22;13044;49.304;12.840;2023-05-10T09:50:28;13.50;99.90
25046;DHT22;13044;49.304;12.840;2023-05-10T09:52:59;13.50;99.90
25046;DHT22;13044;49.304;12.840;2023-05-10T09:55:54;13.50;99.90
25046;DHT22;13044;49.304;12.840;2023-05-10T09:58:20;13.70;99.90
25046;DHT22;13044;49.304;12.840;2023-05-10T10:00:47;13.70;99.90
25046;DHT22;13044;49.304;12.840;2023-05-10T10:03:20;13.90;99.90
25046;DHT22;13044;49.304;12.840;2023-05-10T10:05:48;13.90;99.90
25046;DHT22;13044;49.304;12.840;2023-05-10T10:08:15;14.00;99.90
25046;DHT22;13044;49.304;12.840;2023-05-10T10:10:43;14.10;99.90
25046;DHT22;13044;49.304;12.840;2023-05-10T10:13:13;14.20;99.90
25046;DHT22;13044;49.304;12.840;2023-05-10T10:15:42;14.30;99.90
25046;DHT22;13044;49.304;12.840;2023-05-10T10:18:14;14.40;99.90
25046;DHT22;13044;49.304;12.840;2023-05-10T10:20:44;14.50;99.90
25046;DHT22;13044;49.304;12.840;2023-05-10T10:23:11;14.50;99.90
25046;DHT22;13044;49.304;12.840;2023-05-10T10:25:39;14.60;99.90
25046;DHT22;13044;49.304;12.840;2023-05-10T10:31:41;14.80;99.90
25046;DHT22;13044;49.304;12.840;2023-05-10T10:34:28;15.00;99.90
25046;DHT22;13044;49.304;12.840;2023-05-10T10:36:57;15.00;99.90
25046;DHT22;13044;49.304;12.840;2023-05-10T10:39:24;15.00;99.90
25046;DHT22;13044;49.304;12.840;2023-05-10T10:41:53;14.90;99.90
25046;DHT22;13044;49.304;12.840;2023-05-10T10:50:19;15.20;99.90
25046;DHT22;13044;49.304;12.840;2023-05-10T10:52:30;15.30;99.90
25046;DHT22;13044;49.304;12.840;2023-05-10T10:55:14;15.40;99.90
25046;DHT22;13044;49.304;12.840;2023-05-10T10:57:52;15.60;99.90
25046;DHT22;13044;49.304;12.840;2023-05-10T11:03:12;15.70;99.90
25046;DHT22;13044;49.304;12.840;2023-05-10T11:05:41;15.70;99.90
25046;DHT22;13044;49.304;12.840;2023-05-10T11:08:34;15.80;99.90
25046;DHT22;13044;49.304;12.840;2023-05-10T11:11:05;15.90;99.90
25046;DHT22;13044;49.304;12.840;2023-05-10T11:13:36;16.00;99.90
25046;DHT22;13044;49.304;12.840;2023-05-10T11:16:43;15.90;99.90
25046;DHT22;13044;49.304;12.840;2023-05-10T11:19:15;16.00;99.90
25046;DHT22;13044;49.304;12.840;2023-05-10T11:24:32;16.20;99.90
25046;DHT22;13044;49.304;12.840;2023-05-10T11:27:00;16.20;99.90
25046;DHT22;13044;49.304;12.840;2023-05-10T11:29:27;16.20;99.90
25046;DHT22;13044;49.304;12.840;2023-05-10T11:31:57;16.10;99.90
25046;DHT22;13044;49.304;12.840;2023-05-10T11:34:29;16.20;99.90
25046;DHT22;13044;49.304;12.840;2023-05-10T11:36:57;16.20;99.90
25046;DHT22;13044;49.304;12.840;2023-05-10T11:39:29;16.20;99.90
25046;DHT22;13044;49.304;12.840;2023-05-10T11:41:57;16.30;99.90
25046;DHT22;13044;49.304;12.840;2023-05-10T11:44:29;16.40;99.90
25046;DHT22;13044;49.304;12.840;2023-05-10T11:47:01;16.50;99.90
25046;DHT22;13044;49.304;12.840;2023-05-10T11:49:28;16.50;99.90
25046;DHT22;13044;49.304;12.840;2023-05-10T11:52:06;16.50;99.90
25046;DHT22;13044;49.304;12.840;2023-05-10T11:54:33;16.40;99.90
25046;DHT22;13044;49.304;12.840;2023-05-10T11:57:01;16.20;99.90
25046;DHT22;13044;49.304;12.840;2023-05-10T11:59:28;16.20;99.90
25046;DHT22;13044;49.304;12.840;2023-05-10T12:01:55;16.20;99.90
25046;DHT22;13044;49.304;12.840;2023-05-10T12:04:23;16.20;99.90
25046;DHT22;13044;49.304;12.840;2023-05-10T12:06:49;16.20;99.90
25046;DHT22;13044;49.304;12.840;2023-05-10T12:09:16;16.20;99.90
25046;DHT22;13044;49.304;12.840;2023-05-10T12:11:57;16.30;99.90
25046;DHT22;13044;49.304;12.840;2023-05-10T12:14:24;16.40;99.90
25046;DHT22;13044;49.304;12.840;2023-05-10T12:16:51;16.50;99.90
25046;DHT22;13044;49.304;12.840;2023-05-10T12:19:21;16.50;99.90
25046;DHT22;13044;49.304;12.840;2023-05-10T12:21:48;16.60;99.90
25046;DHT22;13044;49.304;12.840;2023-05-10T12:24:15;16.60;99.90
25046;DHT22;13044;49.304;12.840;2023-05-10T12:26:45;16.40;99.90
25046;DHT22;13044;49.304;12.840;2023-05-10T12:29:16;16.40;99.90
25046;DHT22;13044;49.304;12.840;2023-05-10T12:31:52;16.50;99.90
25046;DHT22;13044;49.304;12.840;2023-05-10T12:34:27;16.40;99.90
25046;DHT22;13044;49.304;12.840;2023-05-10T12:36:58;16.50;99.90
25046;DHT22;13044;49.304;12.840;2023-05-10T12:39:25;16.40;99.90
25046;DHT22;13044;49.304;12.840;2023-05-10T12:41:52;16.50;99.90
25046;DHT22;13044;49.304;12.840;2023-05-10T12:44:19;16.50;99.90
25046;DHT22;13044;49.304;12.840;2023-05-10T12:46:46;16.40;99.90
25046;DHT22;13044;49.304;12.840;2023-05-10T12:49:13;16.00;99.90
25046;DHT22;13044;49.304;12.840;2023-05-10T12:51:40;16.00;99.90
25046;DHT22;13044;49.304;12.840;2023-05-10T12:54:06;15.70;99.90
25046;DHT22;13044;49.304;12.840;2023-05-10T12:56:33;15.70;99.90
25046;DHT22;13044;49.304;12.840;2023-05-10T12:59:00;15.80;99.90
25046;DHT22;13044;49.304;12.840;2023-05-10T13:01:27;15.90;99.90
25046;DHT22;13044;49.304;12.840;2023-05-10T13:03:54;16.00;99.90
25046;DHT22;13044;49.304;12.840;2023-05-10T13:06:21;16.10;99.90
25046;DHT22;13044;49.304;12.840;2023-05-10T13:08:48;16.00;99.90
25046;DHT22;13044;49.304;12.840;2023-05-10T13:11:15;15.90;99.90
25046;DHT22;13044;49.304;12.840;2023-05-10T13:13:43;15.90;99.90
25046;DHT22;13044;49.304;12.840;2023-05-10T13:16:11;15.80;99.90
25046;DHT22;13044;49.304;12.840;2023-05-10T13:18:37;15.50;99.90
25046;DHT22;13044;49.304;12.840;2023-05-10T13:21:04;15.40;99.90
25046;DHT22;13044;49.304;12.840;2023-05-10T13:23:32;15.40;99.90
25046;DHT22;13044;49.304;12.840;2023-05-10T13:25:58;15.40;99.90
25046;DHT22;13044;49.304;12.840;2023-05-10T13:28:25;15.40;99.90
25046;DHT22;13044;49.304;12.840;2023-05-10T13:30:52;15.40;99.90
25046;DHT22;13044;49.304;12.840;2023-05-10T13:33:19;15.30;99.90
25046;DHT22;13044;49.304;12.840;2023-05-10T13:35:46;15.30;99.90
25046;DHT22;13044;49.304;12.840;2023-05-10T13:38:13;15.40;99.90
25046;DHT22;13044;49.304;12.840;2023-05-10T13:40:40;15.30;99.90
25046;DHT22;13044;49.304;12.840;2023-05-10T13:43:07;15.30;99.90
25046;DHT22;13044;49.304;12.840;2023-05-10T13:45:34;15.40;99.90
25046;DHT22;13044;49.304;12.840;2023-05-10T13:48:01;15.40;99.90
25046;DHT22;13044;49.304;12.840;2023-05-10T13:50:28;15.30;99.90
25046;DHT22;13044;49.304;12.840;2023-05-10T13:52:55;15.50;99.90
25046;DHT22;13044;49.304;12.840;2023-05-10T13:55:22;15.50;99.90
25046;DHT22;13044;49.304;12.840;2023-05-10T13:57:49;15.60;99.90
25046;DHT22;13044;49.304;12.840;2023-05-10T14:00:16;15.70;99.90
25046;DHT22;13044;49.304;12.840;2023-05-10T14:02:43;15.70;99.90
25046;DHT22;13044;49.304;12.840;2023-05-10T14:05:10;15.80;99.90
25046;DHT22;13044;49.304;12.840;2023-05-10T14:07:38;15.80;99.90
25046;DHT22;13044;49.304;12.840;2023-05-10T14:10:05;15.80;99.90
25046;DHT22;13044;49.304;12.840;2023-05-10T14:12:32;15.70;99.90
25046;DHT22;13044;49.304;12.840;2023-05-10T14:14:59;15.70;99.90
25046;DHT22;13044;49.304;12.840;2023-05-10T14:17:26;15.80;99.90
25046;DHT22;13044;49.304;12.840;2023-05-10T14:19:53;15.80;99.90
25046;DHT22;13044;49.304;12.840;2023-05-10T14:22:20;15.90;99.90
25046;DHT22;13044;49.304;12.840;2023-05-10T14:24:48;16.00;99.90
25046;DHT22;13044;49.304;12.840;2023-05-10T14:27:15;16.10;99.90
25046;DHT22;13044;49.304;12.840;2023-05-10T14:29:42;16.10;99.90
25046;DHT22;13044;49.304;12.840;2023-05-10T14:32:09;16.10;99.90
25046;DHT22;13044;49.304;12.840;2023-05-10T14:34:36;16.10;99.90
25046;DHT22;13044;49.304;12.840;2023-05-10T14:37:03;16.10;99.90
25046;DHT22;13044;49.304;12.840;2023-05-10T14:39:30;16.20;99.90
25046;DHT22;13044;49.304;12.840;2023-05-10T14:41:57;16.20;99.90
25046;DHT22;13044;49.304;12.840;2023-05-10T14:44:24;16.30;99.90
25046;DHT22;13044;49.304;12.840;2023-05-10T14:46:51;16.40;99.90
25046;DHT22;13044;49.304;12.840;2023-05-10T14:49:18;16.40;99.90
25046;DHT22;13044;49.304;12.840;2023-05-10T14:51:45;16.50;99.90
25046;DHT22;13044;49.304;12.840;2023-05-10T14:54:12;16.70;99.90
25046;DHT22;13044;49.304;12.840;2023-05-10T14:56:39;16.70;99.90
25046;DHT22;13044;49.304;12.840;2023-05-10T14:59:08;16.70;99.90
25046;DHT22;13044;49.304;12.840;2023-05-10T15:01:35;16.70;99.90
25046;DHT22;13044;49.304;12.840;2023-05-10T15:04:04;16.80;99.90
25046;DHT22;13044;49.304;12.840;2023-05-10T15:06:32;16.90;99.90
25046;DHT22;13044;49.304;12.840;2023-05-10T15:09:02;17.00;99.90
25046;DHT22;13044;49.304;12.840;2023-05-10T15:11:29;16.90;99.90
25046;DHT22;13044;49.304;12.840;2023-05-10T15:13:56;16.60;99.90
25046;DHT22;13044;49.304;12.840;2023-05-10T15:16:23;16.70;99.90
25046;DHT22;13044;49.304;12.840;2023-05-10T15:18:50;16.50;99.90
25046;DHT22;13044;49.304;12.840;2023-05-10T15:21:17;16.60;99.90
25046;DHT22;13044;49.304;12.840;2023-05-10T15:23:44;16.60;99.90
25046;DHT22;13044;49.304;12.840;2023-05-10T15:26:11;16.60;99.90
25046;DHT22;13044;49.304;12.840;2023-05-10T15:28:37;16.60;99.90
25046;DHT22;13044;49.304;12.840;2023-05-10T15:31:04;16.70;99.90
25046;DHT22;13044;49.304;12.840;2023-05-10T15:33:31;16.70;99.90
25046;DHT22;13044;49.304;12.840;2023-05-10T15:35:58;16.80;99.90
25046;DHT22;13044;49.304;12.840;2023-05-10T15:38:25;16.80;99.90
25046;DHT22;13044;49.304;12.840;2023-05-10T15:40:56;16.90;99.90
25046;DHT22;13044;49.304;12.840;2023-05-10T15:43:24;16.80;99.90
25046;DHT22;13044;49.304;12.840;2023-05-10T15:45:51;16.90;99.90
25046;DHT22;13044;49.304;12.840;2023-05-10T15:48:18;16.90;99.90